createdAt,value
2019-04-11T00:00:23.586Z,12.53
2019-04-11T00:02:53.165Z,12.23
2019-04-11T00:05:21.791Z,13.62
2019-04-11T00:07:50.292Z,11.83
2019-04-11T00:10:19.037Z,12.37
2019-04-11T00:12:48.507Z,12.80
2019-04-11T00:15:18.126Z,11.22
2019-04-11T00:17:46.720Z,12.47
2019-04-11T00:20:15.990Z,11.08
2019-04-11T00:22:45.613Z,12.10
2019-04-11T00:25:15.585Z,11.22
2019-04-11T00:27:44.157Z,12.07
2019-04-11T00:30:15.674Z,11.93
2019-04-11T00:32:45.441Z,11.90
2019-04-11T00:35:14.151Z,11.10
2019-04-11T00:37:43.446Z,11.33
2019-04-11T00:40:13.095Z,11.83
2019-04-11T00:42:42.906Z,11.33
2019-04-11T00:45:11.786Z,11.70
2019-04-11T00:47:41.454Z,11.93
2019-04-11T00:50:10.709Z,11.48
2019-04-11T00:52:39.346Z,11.22
2019-04-11T00:55:08.137Z,11.08
2019-04-11T00:57:37.059Z,11.57
2019-04-11T01:00:07.509Z,11.48
2019-04-11T01:02:36.085Z,10.80
2019-04-11T01:05:05.980Z,10.78
2019-04-11T01:07:35.339Z,10.98
2019-04-11T01:10:06.662Z,10.30
2019-04-11T01:12:36.472Z,11.25
2019-04-11T01:15:08.434Z,10.98
2019-04-11T01:17:37.121Z,10.90
2019-04-11T01:20:08.097Z,11.43
2019-04-11T01:22:36.960Z,11.55
2019-04-11T01:25:08.417Z,10.98
2019-04-11T01:27:39.422Z,11.08
2019-04-11T01:30:10.277Z,10.38
2019-04-11T01:32:38.905Z,11.18
2019-04-11T01:35:08.825Z,11.08
2019-04-11T01:37:38.301Z,11.28
2019-04-11T01:40:07.827Z,11.15
2019-04-11T01:42:37.522Z,11.03
2019-04-11T01:45:07.443Z,11.22
2019-04-11T01:47:51.012Z,11.30
2019-04-11T01:50:21.363Z,11.10
2019-04-11T01:52:50.850Z,10.38
2019-04-11T01:55:20.590Z,10.80
2019-04-11T01:57:49.892Z,10.18
2019-04-11T02:00:37.253Z,10.45
2019-04-11T02:03:08.750Z,11.05
2019-04-11T02:05:37.492Z,10.48
2019-04-11T02:08:07.024Z,10.48
2019-04-11T02:10:36.943Z,10.80
2019-04-11T02:13:05.915Z,11.22
2019-04-11T02:15:34.576Z,10.58
2019-04-11T02:18:03.386Z,11.60
2019-04-11T02:20:31.894Z,11.05
2019-04-11T02:23:04.828Z,10.13
2019-04-11T02:25:38.728Z,10.98
2019-04-11T02:28:08.716Z,9.55
2019-04-11T02:30:41.061Z,11.25
2019-04-11T02:33:10.100Z,11.45
2019-04-11T02:35:39.936Z,10.82
2019-04-11T02:38:11.807Z,10.60
2019-04-11T02:40:41.085Z,10.75
2019-04-11T02:43:11.766Z,10.53
2019-04-11T02:45:54.584Z,11.08
2019-04-11T02:48:13.262Z,10.23
2019-04-11T02:50:43.120Z,11.48
2019-04-11T02:53:12.576Z,10.10
2019-04-11T02:55:43.636Z,10.53
2019-04-11T02:58:12.517Z,12.18
2019-04-11T03:00:42.214Z,10.58
2019-04-11T03:03:12.814Z,10.03
2019-04-11T03:05:41.897Z,11.40
2019-04-11T03:08:13.981Z,11.53
2019-04-11T03:10:42.861Z,10.53
2019-04-11T03:13:12.703Z,11.20
2019-04-11T03:15:56.748Z,11.75
2019-04-11T03:18:14.535Z,11.78
2019-04-11T03:20:48.353Z,11.28
2019-04-11T03:23:15.060Z,12.30
2019-04-11T03:25:42.752Z,10.63
2019-04-11T03:28:16.743Z,10.38
2019-04-11T03:30:59.260Z,11.55
2019-04-11T03:38:36.955Z,11.55
2019-04-11T03:41:00.834Z,12.07
2019-04-11T03:43:28.149Z,12.28
2019-04-11T03:46:06.722Z,12.23
2019-04-11T03:48:29.010Z,12.85
2019-04-11T03:50:46.616Z,11.75
2019-04-11T03:53:17.332Z,13.32
2019-04-11T03:55:47.328Z,11.75
2019-04-11T03:58:17.452Z,13.53
2019-04-11T04:00:49.134Z,13.32
2019-04-11T04:03:18.246Z,14.10
2019-04-11T04:05:48.493Z,12.47
2019-04-11T04:08:17.949Z,13.18
2019-04-11T04:11:05.930Z,13.53
2019-04-11T04:13:36.886Z,13.83
2019-04-11T04:16:24.450Z,12.53
2019-04-11T04:18:51.812Z,12.20
2019-04-11T04:21:28.854Z,12.63
2019-04-11T04:23:59.337Z,12.28
2019-04-11T04:26:29.235Z,12.55
2019-04-11T04:28:59.711Z,12.68
2019-04-11T04:31:28.726Z,13.70
2019-04-11T04:33:57.740Z,12.10
2019-04-11T04:36:28.493Z,14.33
2019-04-11T04:38:59.114Z,13.80
2019-04-11T04:41:38.423Z,13.22
2019-04-11T04:44:01.684Z,11.03
2019-04-11T04:46:50.198Z,21.00
2019-04-11T04:49:00.645Z,15.08
2019-04-11T04:51:31.020Z,14.30
2019-04-11T04:54:00.029Z,13.32
2019-04-11T04:56:31.779Z,13.90
2019-04-11T04:58:59.226Z,14.07
2019-04-11T05:01:29.106Z,12.80
2019-04-11T05:03:58.332Z,13.35
2019-04-11T05:06:28.103Z,13.50
2019-04-11T05:08:58.123Z,13.83
2019-04-11T05:11:28.225Z,15.25
2019-04-11T05:13:58.562Z,14.03
2019-04-11T05:16:27.280Z,12.37
2019-04-11T05:18:56.636Z,12.50
2019-04-11T05:21:26.072Z,11.35
2019-04-11T05:23:55.496Z,13.20
2019-04-11T05:26:25.668Z,11.63
2019-04-11T05:28:55.231Z,11.48
2019-04-11T05:31:24.805Z,11.78
2019-04-11T05:33:59.563Z,11.75
2019-04-11T05:36:28.341Z,9.95
2019-04-11T05:38:56.882Z,11.48
2019-04-11T05:41:26.196Z,10.90
2019-04-11T05:43:55.702Z,11.57
2019-04-11T05:46:33.573Z,11.65
2019-04-11T05:49:02.645Z,12.13
2019-04-11T05:51:38.871Z,16.85
2019-04-11T05:54:07.324Z,12.25
2019-04-11T05:56:35.337Z,10.03
2019-04-11T05:59:09.453Z,11.33
2019-04-11T06:01:42.546Z,11.50
2019-04-11T06:04:20.987Z,12.10
2019-04-11T06:06:50.624Z,11.50
2019-04-11T06:09:20.933Z,11.57
2019-04-11T06:11:58.194Z,11.90
2019-04-11T06:14:31.216Z,10.68
2019-04-11T06:17:01.485Z,11.65
2019-04-11T06:19:31.957Z,9.10
2019-04-11T06:22:04.685Z,10.90
2019-04-11T06:24:50.179Z,11.20
2019-04-11T06:27:24.112Z,11.55
2019-04-11T06:29:54.913Z,11.80
2019-04-11T06:32:40.947Z,11.55
2019-04-11T06:35:11.579Z,11.63
2019-04-11T06:37:41.820Z,11.73
2019-04-11T06:40:27.763Z,11.50
2019-04-11T06:43:01.436Z,11.22
2019-04-11T06:45:48.132Z,11.90
2019-04-11T06:48:18.338Z,11.10
2019-04-11T06:50:51.350Z,11.20
2019-04-11T06:53:20.996Z,11.25
2019-04-11T06:56:08.096Z,11.28
2019-04-11T06:58:39.482Z,10.28
2019-04-11T07:01:09.873Z,11.78
2019-04-11T07:03:51.670Z,11.85
2019-04-11T07:06:21.939Z,11.65
2019-04-11T07:08:52.154Z,11.30
2019-04-11T07:11:25.539Z,12.03
2019-04-11T07:13:58.549Z,11.73
2019-04-11T07:18:57.840Z,11.70
2019-04-11T07:21:28.027Z,12.47
2019-04-11T07:24:14.511Z,12.40
2019-04-11T07:26:44.251Z,12.70
2019-04-11T07:29:31.422Z,12.43
2019-04-11T07:32:07.680Z,12.33
2019-04-11T07:34:54.425Z,13.32
2019-04-11T07:37:28.140Z,13.22
2019-04-11T07:40:13.343Z,12.07
2019-04-11T07:42:53.190Z,12.40
2019-04-11T07:45:40.302Z,13.25
2019-04-11T07:48:21.759Z,12.75
2019-04-11T07:50:53.713Z,13.60
2019-04-11T07:53:24.004Z,12.53
2019-04-11T07:55:53.157Z,12.60
2019-04-11T07:58:26.367Z,13.68
2019-04-11T08:01:12.544Z,12.82
2019-04-11T08:03:42.778Z,14.23
2019-04-11T08:06:28.821Z,13.53
2019-04-11T08:09:02.685Z,13.25
2019-04-11T08:11:33.884Z,14.13
2019-04-11T08:14:10.479Z,13.72
2019-04-11T08:16:46.864Z,14.18
2019-04-11T08:19:33.373Z,13.95
2019-04-11T08:22:03.572Z,13.48
2019-04-11T08:24:42.711Z,13.95
2019-04-11T08:27:28.063Z,13.68
2019-04-11T08:30:02.511Z,14.85
2019-04-11T08:32:38.495Z,14.45
2019-04-11T08:35:15.768Z,13.40
2019-04-11T08:38:02.835Z,14.70
2019-04-11T08:40:42.926Z,14.60
2019-04-11T08:43:29.167Z,13.48
2019-04-11T08:46:06.639Z,14.70
2019-04-11T08:48:53.275Z,13.95
2019-04-11T08:51:23.520Z,14.58
2019-04-11T08:54:02.446Z,14.95
2019-04-11T08:56:31.354Z,15.15
2019-04-11T08:59:31.997Z,14.80
2019-04-11T09:02:00.733Z,14.60
2019-04-11T09:04:48.153Z,14.70
2019-04-11T09:07:21.514Z,14.73
2019-04-11T09:10:07.393Z,16.37
2019-04-11T09:12:38.398Z,15.32
2019-04-11T09:15:17.680Z,15.03
2019-04-11T09:17:56.576Z,15.30
2019-04-11T09:20:23.376Z,15.60
2019-04-11T09:22:53.590Z,15.45
2019-04-11T09:25:40.074Z,15.68
2019-04-11T09:28:11.371Z,15.18
2019-04-11T09:30:43.041Z,15.35
2019-04-11T09:33:29.235Z,15.63
2019-04-11T09:35:59.758Z,16.90
2019-04-11T09:38:32.843Z,17.20
2019-04-11T09:41:09.093Z,16.00
2019-04-11T09:43:42.248Z,15.90
2019-04-11T09:46:12.547Z,16.97
2019-04-11T09:48:48.966Z,15.35
2019-04-11T09:51:38.045Z,16.17
2019-04-11T09:54:12.044Z,16.82
2019-04-11T09:56:58.509Z,16.32
2019-04-11T09:59:31.681Z,16.40
2019-04-11T10:02:10.661Z,17.00
2019-04-11T10:04:41.676Z,17.07
2019-04-11T10:07:28.138Z,15.95
2019-04-11T10:10:04.612Z,16.40
2019-04-11T10:12:40.672Z,16.80
2019-04-11T10:15:11.252Z,17.02
2019-04-11T10:17:42.503Z,17.27
2019-04-11T10:20:20.818Z,16.30
2019-04-11T10:22:52.198Z,17.00
2019-04-11T10:25:25.437Z,15.48
2019-04-11T10:28:11.197Z,18.60
2019-04-11T10:30:50.384Z,17.30
2019-04-11T10:33:33.134Z,17.95
2019-04-11T10:36:19.398Z,16.23
2019-04-11T10:38:49.550Z,16.85
2019-04-11T10:41:32.564Z,18.00
2019-04-11T10:46:41.675Z,18.85
2019-04-11T10:49:30.392Z,18.10
2019-04-11T10:52:00.655Z,18.20
2019-04-11T10:54:31.301Z,18.87
2019-04-11T10:57:05.620Z,17.35
2019-04-11T10:59:35.898Z,18.85
2019-04-11T11:02:23.011Z,18.07
2019-04-11T11:04:53.185Z,18.65
2019-04-11T11:07:21.771Z,18.90
2019-04-11T11:09:54.933Z,17.80
2019-04-11T11:12:35.158Z,18.75
2019-04-11T11:15:09.453Z,18.70
2019-04-11T11:18:03.218Z,18.82
2019-04-11T11:20:33.919Z,18.55
2019-04-11T11:22:58.340Z,18.62
2019-04-11T11:25:35.081Z,19.32
2019-04-11T11:28:03.737Z,18.90
2019-04-11T11:30:50.353Z,18.40
2019-04-11T11:33:20.569Z,18.52
2019-04-11T11:35:51.955Z,18.67
2019-04-11T11:38:25.972Z,19.50
2019-04-11T11:41:05.901Z,18.45
2019-04-11T11:43:35.429Z,18.57
2019-04-11T11:46:25.694Z,19.27
2019-04-11T11:48:54.262Z,18.92
2019-04-11T11:51:27.830Z,17.52
2019-04-11T11:53:59.376Z,18.67
2019-04-11T11:56:27.937Z,17.92
2019-04-11T11:59:07.194Z,17.95
2019-04-11T12:01:42.267Z,18.52
2019-04-11T12:04:24.446Z,20.02
2019-04-11T12:06:59.754Z,18.57
2019-04-11T12:09:44.707Z,19.50
2019-04-11T12:12:15.613Z,18.48
2019-04-11T12:15:01.893Z,18.67
2019-04-11T12:17:37.875Z,19.02
2019-04-11T12:20:14.310Z,18.77
2019-04-11T12:22:42.969Z,18.65
2019-04-11T12:25:27.153Z,18.73
2019-04-11T12:28:11.967Z,19.85
2019-04-11T12:30:39.837Z,19.35
2019-04-11T12:33:29.706Z,20.35
2019-04-11T12:36:07.598Z,18.98
2019-04-11T12:38:38.417Z,19.07
2019-04-11T12:41:19.998Z,20.37
2019-04-11T12:43:55.533Z,19.42
2019-04-11T12:46:39.474Z,20.08
2019-04-11T12:49:28.268Z,20.65
2019-04-11T12:52:22.595Z,20.48
2019-04-11T12:54:48.252Z,21.17
2019-04-11T12:57:36.185Z,20.27
2019-04-11T13:00:11.926Z,20.92
2019-04-11T13:02:58.469Z,20.00
2019-04-11T13:05:32.271Z,20.32
2019-04-11T13:08:17.610Z,20.55
2019-04-11T13:10:50.244Z,23.00
2019-04-11T13:13:20.785Z,21.30
2019-04-11T13:15:51.417Z,20.88
2019-04-11T13:18:40.780Z,20.85
2019-04-11T13:21:12.998Z,21.82
2019-04-11T13:23:56.280Z,20.23
2019-04-11T13:26:41.913Z,21.77
2019-04-11T13:29:19.667Z,20.70
2019-04-11T13:31:56.035Z,22.52
2019-04-11T13:34:32.168Z,20.70
2019-04-11T13:37:14.393Z,20.95
2019-04-11T13:39:50.041Z,20.67
2019-04-11T13:42:25.510Z,21.62
2019-04-11T13:44:59.236Z,22.32
2019-04-11T13:47:33.661Z,19.27
2019-04-11T13:50:04.099Z,22.00
2019-04-11T13:52:52.078Z,20.72
2019-04-11T13:55:21.066Z,20.00
2019-04-11T13:57:53.733Z,20.45
2019-04-11T14:00:38.672Z,21.45
2019-04-11T14:03:26.842Z,20.82
2019-04-11T14:05:57.394Z,21.52
2019-04-11T14:08:27.586Z,21.70
2019-04-11T14:11:10.704Z,21.57
2019-04-11T14:13:43.850Z,21.55
2019-04-11T14:16:14.708Z,22.82
2019-04-11T14:18:45.198Z,20.70
2019-04-11T14:21:27.367Z,20.55
2019-04-11T14:24:12.661Z,21.55
2019-04-11T14:26:44.206Z,21.35
2019-04-11T14:29:15.999Z,21.23
2019-04-11T14:31:53.822Z,19.80
2019-04-11T14:34:29.753Z,20.77
2019-04-11T14:37:11.633Z,20.02
2019-04-11T14:39:41.851Z,20.27
2019-04-11T14:42:28.489Z,19.50
2019-04-11T14:44:57.156Z,20.43
2019-04-11T14:47:39.001Z,19.98
2019-04-11T14:50:11.154Z,20.05
2019-04-11T14:52:56.795Z,20.48
2019-04-11T14:55:26.922Z,19.37
2019-04-11T14:58:13.114Z,19.45
2019-04-11T15:00:41.694Z,20.68
2019-04-11T15:03:11.879Z,20.80
2019-04-11T15:05:45.342Z,23.50
2019-04-11T15:08:17.773Z,20.60
2019-04-11T15:10:59.340Z,20.57
2019-04-11T15:13:29.469Z,22.15
2019-04-11T15:16:11.513Z,20.20
2019-04-11T15:18:41.632Z,19.95
2019-04-11T15:21:17.325Z,20.17
2019-04-11T15:23:45.881Z,20.50
2019-04-11T15:26:27.844Z,19.45
2019-04-11T15:28:58.041Z,18.90
2019-04-11T15:31:39.495Z,19.60
2019-04-11T15:34:08.991Z,18.67
2019-04-11T15:36:39.904Z,18.48
2019-04-11T15:39:26.199Z,18.77
2019-04-11T15:42:01.808Z,17.50
2019-04-11T15:44:43.735Z,20.55
2019-04-11T15:47:21.629Z,18.87
2019-04-11T15:50:07.906Z,19.52
2019-04-11T15:52:38.384Z,20.40
2019-04-11T15:55:24.197Z,18.80
2019-04-11T15:57:52.942Z,19.12
2019-04-11T16:00:29.302Z,18.05
2019-04-11T16:02:59.345Z,18.40
2019-04-11T16:05:45.531Z,18.62
2019-04-11T16:08:15.750Z,19.42
2019-04-11T16:10:51.855Z,19.95
2019-04-11T16:13:24.614Z,19.80
2019-04-11T16:16:07.152Z,18.82
2019-04-11T16:18:51.792Z,18.42
2019-04-11T16:21:25.000Z,19.48
2019-04-11T16:24:11.082Z,18.67
2019-04-11T16:26:44.040Z,18.25
2019-04-11T16:29:23.112Z,19.98
2019-04-11T16:31:53.252Z,18.27
2019-04-11T16:34:26.134Z,17.00
2019-04-11T16:39:24.061Z,18.25
2019-04-11T16:42:03.055Z,18.32
2019-04-11T16:44:42.030Z,18.02
2019-04-11T16:47:28.470Z,18.52
2019-04-11T16:49:57.610Z,17.90
2019-04-11T16:52:26.202Z,18.67
2019-04-11T16:54:54.757Z,18.80
2019-04-11T16:57:23.337Z,18.55
2019-04-11T16:59:51.886Z,18.87
2019-04-11T17:02:21.793Z,17.85
2019-04-11T17:04:50.927Z,17.75
2019-04-11T17:07:26.070Z,17.98
2019-04-11T17:09:56.901Z,18.23
2019-04-11T17:12:26.665Z,17.62
2019-04-11T17:14:55.704Z,17.65
2019-04-11T17:17:26.290Z,19.73
2019-04-11T17:19:54.493Z,17.65
2019-04-11T17:22:23.015Z,19.07
2019-04-11T17:24:51.563Z,16.70
2019-04-11T17:27:20.988Z,17.73
2019-04-11T17:29:50.341Z,17.77
2019-04-11T17:32:18.819Z,18.10
2019-04-11T17:34:47.401Z,18.12
2019-04-11T17:37:15.943Z,18.02
2019-04-11T17:39:44.517Z,17.87
2019-04-11T17:42:13.373Z,16.82
2019-04-11T17:44:42.606Z,17.20
2019-04-11T17:47:11.165Z,18.17
2019-04-11T17:49:39.669Z,17.67
2019-04-11T17:52:08.449Z,17.45
2019-04-11T17:54:37.097Z,18.98
2019-04-11T17:57:05.651Z,17.77
2019-04-11T17:59:34.226Z,16.62
2019-04-11T18:02:03.350Z,17.67
2019-04-11T18:04:31.921Z,17.57
2019-04-11T18:07:00.542Z,16.73
2019-04-11T18:09:29.041Z,17.15
2019-04-11T18:11:57.538Z,16.77
2019-04-11T18:14:26.108Z,16.77
2019-04-11T18:16:54.585Z,16.77
2019-04-11T18:19:23.084Z,16.65
2019-04-11T18:21:51.710Z,16.80
2019-04-11T18:24:20.490Z,16.93
2019-04-11T18:26:51.816Z,16.15
2019-04-11T18:29:22.794Z,17.52
2019-04-11T18:31:50.376Z,16.25
2019-04-11T18:34:19.011Z,16.25
2019-04-11T18:36:47.561Z,16.62
2019-04-11T18:39:16.201Z,16.48
2019-04-11T18:41:44.749Z,16.20
2019-04-11T18:44:13.477Z,15.43
2019-04-11T18:46:42.083Z,16.85
2019-04-11T18:49:10.642Z,15.95
2019-04-11T18:51:39.249Z,15.28
2019-04-11T18:54:07.926Z,15.88
2019-04-11T18:56:38.117Z,15.48
2019-04-11T18:59:06.918Z,15.50
2019-04-11T19:01:38.942Z,16.30
2019-04-11T19:04:05.921Z,14.90
2019-04-11T19:06:34.423Z,15.53
2019-04-11T19:09:07.421Z,16.05
2019-04-11T19:11:35.925Z,15.28
2019-04-11T19:14:04.537Z,16.57
2019-04-11T19:16:33.289Z,16.62
2019-04-11T19:19:01.969Z,14.65
2019-04-11T19:21:30.526Z,15.43
2019-04-11T19:23:59.061Z,14.80
2019-04-11T19:26:27.694Z,14.70
2019-04-11T19:28:56.254Z,15.38
2019-04-11T19:31:27.392Z,14.23
2019-04-11T19:33:55.051Z,14.10
2019-04-11T19:36:23.629Z,14.55
2019-04-11T19:38:52.202Z,14.00
2019-04-11T19:41:20.778Z,14.50
2019-04-11T19:43:49.911Z,13.38
2019-04-11T19:46:20.432Z,13.68
2019-04-11T19:48:48.689Z,14.15
2019-04-11T19:51:17.189Z,14.55
2019-04-11T19:53:45.760Z,13.72
2019-04-11T19:56:21.554Z,14.80
2019-04-11T19:58:50.182Z,13.32
2019-04-11T20:01:22.841Z,12.70
2019-04-11T20:03:48.943Z,14.10
2019-04-11T20:06:17.516Z,13.15
2019-04-11T20:08:47.823Z,14.43
2019-04-11T20:11:16.217Z,13.08
2019-04-11T20:13:44.768Z,13.62
2019-04-11T20:16:13.356Z,11.38
2019-04-11T20:18:50.900Z,12.95
2019-04-11T20:21:12.202Z,12.82
2019-04-11T20:23:41.740Z,9.73
2019-04-11T20:26:10.958Z,12.70
2019-04-11T20:28:39.514Z,13.20
2019-04-11T20:31:08.089Z,12.43
2019-04-11T20:33:36.817Z,13.85
2019-04-11T20:36:05.392Z,12.50
2019-04-11T20:38:33.889Z,11.57
2019-04-11T20:41:02.481Z,11.28
2019-04-11T20:43:31.021Z,12.65
2019-04-11T20:45:59.527Z,12.13
2019-04-11T20:48:30.834Z,12.43
2019-04-11T20:50:58.286Z,12.20
2019-04-11T20:53:26.838Z,11.18
2019-04-11T20:55:55.340Z,11.70
2019-04-11T20:58:27.459Z,11.22
2019-04-11T21:00:55.883Z,10.08
2019-04-11T21:03:24.304Z,9.93
2019-04-11T21:05:52.885Z,10.80
2019-04-11T21:08:21.438Z,11.90
2019-04-11T21:10:50.257Z,11.65
2019-04-11T21:13:18.802Z,11.22
2019-04-11T21:15:47.407Z,10.82
2019-04-11T21:18:15.933Z,11.60
2019-04-11T21:20:44.514Z,12.28
2019-04-11T21:23:23.735Z,11.53
2019-04-11T21:25:43.318Z,11.57
2019-04-11T21:28:11.875Z,11.68
2019-04-11T21:30:40.425Z,11.90
2019-04-11T21:33:09.001Z,10.90
2019-04-11T21:35:37.478Z,11.68
2019-04-11T21:38:06.050Z,12.00
2019-04-11T21:40:35.898Z,12.10
2019-04-11T21:43:06.208Z,10.90
2019-04-11T21:45:35.878Z,11.10
2019-04-11T21:48:06.588Z,10.98
2019-04-11T21:50:35.414Z,11.48
2019-04-11T21:53:03.981Z,12.13
2019-04-11T21:55:32.807Z,11.33
2019-04-11T21:58:01.375Z,11.15
2019-04-11T22:00:39.757Z,11.90
2019-04-11T22:03:08.589Z,11.05
2019-04-11T22:05:37.205Z,10.75
2019-04-11T22:08:05.849Z,10.75
2019-04-11T22:10:34.396Z,10.82
2019-04-11T22:13:02.977Z,11.88
2019-04-11T22:15:31.523Z,11.88
2019-04-11T22:18:00.111Z,11.35
2019-04-11T22:20:28.710Z,11.53
2019-04-11T22:22:57.282Z,11.38
2019-04-11T22:25:25.837Z,10.75
2019-04-11T22:27:54.494Z,11.55
2019-04-11T22:30:25.418Z,10.93
2019-04-11T22:32:57.261Z,11.10
2019-04-11T22:35:28.603Z,11.63
2019-04-11T22:37:55.414Z,11.85
2019-04-11T22:40:23.965Z,11.25
2019-04-11T22:42:52.532Z,11.03
2019-04-11T22:45:21.014Z,11.57
2019-04-11T22:47:49.513Z,12.30
2019-04-11T22:50:18.057Z,11.93
2019-04-11T22:52:46.631Z,11.88
2019-04-11T22:55:15.105Z,11.73
2019-04-11T22:57:44.308Z,11.60
2019-04-11T23:00:15.331Z,12.18
2019-04-11T23:02:48.150Z,12.37
2019-04-11T23:05:17.416Z,12.18
2019-04-11T23:07:48.354Z,11.78
2019-04-11T23:10:17.630Z,12.37
2019-04-11T23:12:46.577Z,11.85
2019-04-11T23:15:15.739Z,11.57
2019-04-11T23:17:44.908Z,12.37
2019-04-11T23:20:14.254Z,11.97
2019-04-11T23:22:43.563Z,11.83
2019-04-11T23:25:12.123Z,12.25
2019-04-11T23:27:40.634Z,12.45
2019-04-11T23:30:09.984Z,11.65
2019-04-11T23:32:38.492Z,12.78
2019-04-11T23:35:07.057Z,12.35
2019-04-11T23:37:37.170Z,13.00
2019-04-11T23:40:06.312Z,12.68
2019-04-11T23:42:34.780Z,12.20
2019-04-11T23:45:04.029Z,12.40
2019-04-11T23:47:32.582Z,12.33
2019-04-11T23:50:01.080Z,12.98
2019-04-11T23:52:29.634Z,12.58
2019-04-11T23:54:58.222Z,13.43
2019-04-11T23:57:28.878Z,14.18
